Terminal Aerodrome Forecast
Issued by NWS

Home | Current Version | Previous Version | Text Only | Print | Product List | Glossary On
Versions: 1 2 3 4 5 6 7 8 9 10 11 12 13 14 15 16 17 18 19 20 21 22 23 24
000
FTUS44 KOUN 302334
TAFPNC
TAF
KPNC 302334Z 3100/3124 07008KT P6SM OVC110
     FM310600 15007KT P6SM OVC060
     FM311200 15010KT 5SM -RA OVC025
     FM311600 15012KT 3SM -RA BR OVC008=

USA.gov is the U.S. government's official web portal to all federal, state and local government web resources and services.